createdAt,value
2018-07-13T00:01:08.506Z,20.70
2018-07-13T00:03:37.199Z,20.70
2018-07-13T00:06:06.000Z,20.60
2018-07-13T00:08:34.668Z,20.50
2018-07-13T00:11:03.386Z,20.40
2018-07-13T00:13:33.460Z,20.30
2018-07-13T00:16:03.542Z,20.20
2018-07-13T00:18:32.267Z,20.30
2018-07-13T00:23:29.213Z,20.30
2018-07-13T00:25:57.853Z,20.30
2018-07-13T00:28:26.487Z,20.20
2018-07-13T00:30:55.141Z,20.10
2018-07-13T00:33:23.830Z,20.20
2018-07-13T00:35:52.597Z,20.20
2018-07-13T00:38:21.240Z,20.20
2018-07-13T00:40:49.900Z,20.20
2018-07-13T00:43:18.538Z,20.10
2018-07-13T00:45:47.186Z,20.10
2018-07-13T00:50:44.192Z,20.20
2018-07-13T00:53:12.931Z,20.20
2018-07-13T00:55:41.609Z,20.10
2018-07-13T00:58:10.232Z,20.00
2018-07-13T01:00:38.903Z,19.90
2018-07-13T01:03:07.580Z,19.80
2018-07-13T01:05:36.221Z,19.70
2018-07-13T01:08:04.919Z,19.60
2018-07-13T01:10:33.557Z,19.60
2018-07-13T01:13:02.219Z,19.50
2018-07-13T01:15:30.915Z,19.50
2018-07-13T01:17:59.597Z,19.40
2018-07-13T01:20:28.244Z,19.40
2018-07-13T01:22:56.972Z,19.40
2018-07-13T01:25:25.660Z,19.40
2018-07-13T01:27:54.339Z,19.40
2018-07-13T01:30:23.048Z,19.40
2018-07-13T01:32:51.724Z,19.40
2018-07-13T01:35:20.385Z,19.30
2018-07-13T01:37:49.060Z,19.20
2018-07-13T01:40:17.760Z,19.20
2018-07-13T01:42:46.435Z,19.20
2018-07-13T01:45:15.123Z,19.10
2018-07-13T01:47:43.901Z,19.10
2018-07-13T01:50:12.608Z,19.10
2018-07-13T01:52:41.300Z,19.00
2018-07-13T01:55:09.984Z,19.00
2018-07-13T01:57:38.639Z,19.00
2018-07-13T02:00:08.020Z,19.10
2018-07-13T02:02:36.725Z,19.10
2018-07-13T02:05:06.113Z,19.10
2018-07-13T02:07:34.956Z,19.10
2018-07-13T02:10:03.735Z,19.00
2018-07-13T02:15:00.680Z,19.00
2018-07-13T02:17:29.336Z,18.90
2018-07-13T02:19:57.992Z,18.90
2018-07-13T02:22:26.651Z,18.80
2018-07-13T02:24:56.240Z,18.80
2018-07-13T02:27:24.906Z,18.70
2018-07-13T02:29:53.578Z,18.70
2018-07-13T02:32:22.251Z,18.60
2018-07-13T02:34:50.976Z,18.70
2018-07-13T02:37:19.652Z,18.70
2018-07-13T02:39:48.321Z,18.80
2018-07-13T02:42:16.988Z,18.80
2018-07-13T02:44:45.640Z,18.70
2018-07-13T02:49:42.555Z,18.70
2018-07-13T02:52:11.270Z,18.70
2018-07-13T02:54:39.944Z,18.60
2018-07-13T02:57:08.609Z,18.60
2018-07-13T02:59:37.252Z,18.60
2018-07-13T03:02:06.363Z,18.50
2018-07-13T03:04:35.029Z,18.50
2018-07-13T03:07:03.701Z,18.40
2018-07-13T03:09:32.357Z,18.30
2018-07-13T03:12:01.020Z,18.30
2018-07-13T03:14:29.680Z,18.20
2018-07-13T03:19:26.712Z,18.20
2018-07-13T03:21:55.392Z,18.20
2018-07-13T03:24:24.056Z,18.10
2018-07-13T03:26:52.712Z,18.10
2018-07-13T03:29:21.384Z,18.00
2018-07-13T03:31:50.092Z,18.00
2018-07-13T03:34:18.762Z,18.00
2018-07-13T03:36:47.445Z,18.00
2018-07-13T03:39:16.135Z,18.00
2018-07-13T03:41:44.804Z,17.90
2018-07-13T03:44:13.493Z,17.90
2018-07-13T03:46:42.149Z,17.90
2018-07-13T03:49:10.792Z,17.80
2018-07-13T03:51:39.436Z,17.80
2018-07-13T03:54:08.126Z,17.80
2018-07-13T03:56:36.819Z,17.80
2018-07-13T03:59:05.492Z,17.80
2018-07-13T04:01:34.132Z,17.80
2018-07-13T04:04:02.906Z,17.80
2018-07-13T04:06:31.639Z,17.90
2018-07-13T04:09:00.272Z,17.90
2018-07-13T04:11:28.920Z,17.90
2018-07-13T04:13:57.596Z,17.90
2018-07-13T04:16:26.281Z,17.80
2018-07-13T04:18:54.944Z,17.80
2018-07-13T04:21:23.622Z,17.70
2018-07-13T04:23:52.496Z,17.60
2018-07-13T04:26:21.231Z,17.70
2018-07-13T04:28:50.181Z,17.70
2018-07-13T04:31:18.816Z,17.70
2018-07-13T04:36:15.783Z,17.70
2018-07-13T04:38:44.468Z,17.70
2018-07-13T04:41:13.116Z,17.70
2018-07-13T04:43:41.793Z,17.80
2018-07-13T04:46:10.573Z,17.90
2018-07-13T04:48:39.487Z,17.90
2018-07-13T04:51:08.515Z,17.90
2018-07-13T04:53:37.344Z,17.90
2018-07-13T04:56:06.204Z,17.80
2018-07-13T04:58:35.003Z,17.90
2018-07-13T05:01:03.781Z,18.00
2018-07-13T05:03:32.544Z,18.00
2018-07-13T05:06:01.436Z,18.00
2018-07-13T05:08:30.276Z,18.00
2018-07-13T05:10:58.951Z,18.00
2018-07-13T05:13:27.567Z,18.10
2018-07-13T05:15:56.299Z,18.20
2018-07-13T05:18:24.912Z,18.20
2018-07-13T05:20:53.739Z,18.30
2018-07-13T05:23:22.563Z,18.30
2018-07-13T05:25:51.407Z,18.40
2018-07-13T05:28:20.232Z,18.50
2018-07-13T05:30:48.961Z,18.60
2018-07-13T05:33:17.813Z,18.70
2018-07-13T05:38:15.047Z,19.00
2018-07-13T05:40:43.847Z,19.10
2018-07-13T05:43:12.619Z,19.30
2018-07-13T05:45:41.323Z,19.40
2018-07-13T05:48:10.197Z,19.50
2018-07-13T05:50:39.028Z,19.70
2018-07-13T05:53:07.765Z,19.90
2018-07-13T05:55:36.596Z,20.10
2018-07-13T05:58:05.560Z,20.30
2018-07-13T06:00:34.383Z,20.70
2018-07-13T06:03:03.131Z,21.30
2018-07-13T06:05:31.952Z,22.00
2018-07-13T06:10:52.179Z,23.10
2018-07-13T06:13:22.052Z,23.70
2018-07-13T06:15:58.560Z,24.40
2018-07-13T06:18:33.263Z,25.00
2018-07-13T06:21:17.135Z,25.50
2018-07-13T06:23:56.543Z,26.00
2018-07-13T06:26:39.257Z,26.30
2018-07-13T06:29:16.659Z,26.70
2018-07-13T06:31:47.687Z,27.10
2018-07-13T06:34:26.792Z,27.50
2018-07-13T06:37:03.024Z,27.80
2018-07-13T06:39:41.391Z,28.20
2018-07-13T06:42:13.527Z,28.30
2018-07-13T06:47:34.514Z,28.90
2018-07-13T06:50:08.257Z,29.10
2018-07-13T06:52:55.334Z,29.40
2018-07-13T06:55:31.273Z,29.60
2018-07-13T06:58:11.031Z,29.70
2018-07-13T07:01:07.016Z,30.00
2018-07-13T07:04:41.309Z,30.20
2018-07-13T07:07:13.201Z,30.50
2018-07-13T07:09:43.737Z,30.80
2018-07-13T07:12:21.920Z,31.20
2018-07-13T07:14:51.048Z,31.50
2018-07-13T07:17:19.741Z,31.80
2018-07-13T07:19:48.400Z,32.10
2018-07-13T07:22:17.101Z,32.10
2018-07-13T07:24:45.808Z,32.30
2018-07-13T07:27:14.476Z,32.30
2018-07-13T07:29:43.129Z,32.50
2018-07-13T07:32:11.772Z,32.40
2018-07-13T07:34:40.449Z,32.50
2018-07-13T07:37:09.160Z,32.60
2018-07-13T07:39:37.788Z,32.70
2018-07-13T07:42:06.752Z,32.70
2018-07-13T07:44:35.481Z,32.70
2018-07-13T07:47:04.158Z,32.70
2018-07-13T07:49:32.808Z,32.70
2018-07-13T07:52:01.465Z,32.80
2018-07-13T07:54:30.130Z,32.80
2018-07-13T07:56:58.752Z,32.90
2018-07-13T07:59:27.899Z,32.80
2018-07-13T08:01:56.528Z,32.80
2018-07-13T08:04:25.172Z,32.80
2018-07-13T08:06:54.212Z,32.80
2018-07-13T08:09:22.549Z,32.70
2018-07-13T08:11:51.180Z,32.60
2018-07-13T08:14:19.889Z,32.70
2018-07-13T08:16:48.558Z,32.80
2018-07-13T08:19:21.007Z,32.80
2018-07-13T08:21:49.873Z,32.70
2018-07-13T08:24:21.094Z,32.70
2018-07-13T08:26:51.535Z,32.70
2018-07-13T08:29:22.310Z,32.80
2018-07-13T08:31:50.928Z,32.70
2018-07-13T08:34:19.536Z,32.80
2018-07-13T08:39:16.896Z,32.90
2018-07-13T08:41:45.717Z,32.90
2018-07-13T08:44:14.507Z,32.90
2018-07-13T08:46:43.186Z,33.00
2018-07-13T08:49:11.937Z,33.00
2018-07-13T08:51:40.790Z,33.00
2018-07-13T08:54:09.559Z,33.00
2018-07-13T08:56:38.347Z,32.90
2018-07-13T08:59:07.218Z,32.80
2018-07-13T09:01:35.954Z,32.80
2018-07-13T09:04:04.721Z,32.70
2018-07-13T09:09:02.033Z,32.70
2018-07-13T09:11:30.696Z,32.70
2018-07-13T09:13:59.352Z,32.80
2018-07-13T09:16:28.045Z,32.80
2018-07-13T09:18:56.745Z,32.70
2018-07-13T09:21:25.444Z,32.70
2018-07-13T09:23:54.168Z,32.70
2018-07-13T09:26:22.872Z,32.70
2018-07-13T09:28:51.613Z,32.80
2018-07-13T09:31:20.380Z,32.90
2018-07-13T09:33:48.992Z,33.00
2018-07-13T09:36:17.768Z,33.10
2018-07-13T09:38:46.430Z,33.30
2018-07-13T09:41:15.208Z,33.30
2018-07-13T09:43:43.893Z,33.40
2018-07-13T09:46:12.665Z,33.60
2018-07-13T09:48:41.338Z,33.80
2018-07-13T09:51:10.084Z,33.90
2018-07-13T09:53:38.921Z,34.00
2018-07-13T09:56:07.901Z,34.10
2018-07-13T09:58:37.540Z,34.20
2018-07-13T10:01:24.372Z,34.20
2018-07-13T10:03:53.076Z,34.40
2018-07-13T10:06:21.880Z,34.40
2018-07-13T10:08:50.679Z,34.40
2018-07-13T10:11:19.477Z,34.60
2018-07-13T10:13:48.244Z,34.60
2018-07-13T10:16:17.056Z,34.70
2018-07-13T10:18:45.924Z,34.80
2018-07-13T10:21:14.791Z,34.90
2018-07-13T10:23:44.467Z,34.90
2018-07-13T10:26:15.668Z,35.10
2018-07-13T10:28:44.578Z,35.00
2018-07-13T10:33:42.497Z,35.20
2018-07-13T10:36:14.936Z,35.30
2018-07-13T10:41:11.932Z,35.50
2018-07-13T10:43:40.865Z,35.70
2018-07-13T10:46:09.816Z,35.80
2018-07-13T10:48:38.464Z,35.90
2018-07-13T10:51:07.132Z,35.90
2018-07-13T10:53:35.754Z,36.00
2018-07-13T10:56:04.400Z,36.20
2018-07-13T10:58:33.072Z,36.10
2018-07-13T11:01:01.720Z,36.10
2018-07-13T11:03:30.488Z,36.00
2018-07-13T11:05:59.195Z,35.90
2018-07-13T11:11:56.659Z,36.10
2018-07-13T11:14:25.415Z,36.40
2018-07-13T11:16:54.116Z,36.50
2018-07-13T11:19:30.347Z,36.30
2018-07-13T11:21:59.073Z,36.40
2018-07-13T11:24:27.792Z,36.60
2018-07-13T11:26:56.460Z,36.70
2018-07-13T11:29:27.728Z,36.90
2018-07-13T11:31:56.416Z,36.90
2018-07-13T11:37:06.733Z,36.60
2018-07-13T11:39:42.852Z,36.60
2018-07-13T11:42:11.645Z,36.50
2018-07-13T11:44:40.361Z,36.50
2018-07-13T11:47:09.359Z,36.40
2018-07-13T11:49:38.008Z,36.40
2018-07-13T11:52:06.672Z,36.50
2018-07-13T11:54:35.478Z,36.70
2018-07-13T11:57:04.244Z,36.70
2018-07-13T11:59:32.888Z,36.70
2018-07-13T12:02:01.545Z,36.80
2018-07-13T12:04:32.388Z,36.90
2018-07-13T12:07:01.827Z,37.00
2018-07-13T12:09:30.484Z,36.90
2018-07-13T12:11:59.237Z,36.90
2018-07-13T12:14:30.139Z,36.80
2018-07-13T12:16:58.820Z,36.40
2018-07-13T12:19:27.669Z,36.70
2018-07-13T12:21:56.329Z,36.80
2018-07-13T12:24:28.280Z,36.80
2018-07-13T12:26:57.056Z,36.90
2018-07-13T12:29:25.698Z,36.80
2018-07-13T12:32:04.013Z,36.90
2018-07-13T12:34:45.017Z,36.90
2018-07-13T12:37:25.345Z,37.00
2018-07-13T12:40:27.606Z,37.10
2018-07-13T12:42:56.976Z,37.20
2018-07-13T12:45:25.752Z,37.30
2018-07-13T12:50:29.388Z,37.40
2018-07-13T12:52:58.116Z,37.40
2018-07-13T12:55:35.927Z,37.20
2018-07-13T12:58:15.237Z,37.30
2018-07-13T13:00:44.130Z,37.40
2018-07-13T13:03:14.429Z,37.50
2018-07-13T13:05:58.103Z,37.50
2018-07-13T13:08:42.189Z,37.70
2018-07-13T13:13:39.364Z,37.80
2018-07-13T13:16:08.073Z,37.80
2018-07-13T13:18:36.721Z,37.80
2018-07-13T13:21:05.393Z,37.70
2018-07-13T13:23:34.045Z,37.70
2018-07-13T13:26:02.715Z,37.60
2018-07-13T13:28:40.280Z,37.70
2018-07-13T13:31:09.101Z,37.70
2018-07-13T13:33:41.535Z,37.60
2018-07-13T13:36:14.328Z,37.50
2018-07-13T13:38:43.284Z,37.50
2018-07-13T13:41:12.755Z,37.60
2018-07-13T13:43:43.739Z,37.50
2018-07-13T13:46:12.690Z,37.50
2018-07-13T13:48:41.340Z,37.50
2018-07-13T13:51:10.284Z,37.30
2018-07-13T13:53:39.716Z,37.30
2018-07-13T13:56:32.139Z,37.30
2018-07-13T13:59:08.209Z,37.30
2018-07-13T14:04:14.335Z,37.20
2018-07-13T14:06:43.289Z,37.20
2018-07-13T14:09:14.603Z,37.20
2018-07-13T14:11:45.514Z,37.20
2018-07-13T14:17:08.031Z,37.10
2018-07-13T14:19:43.668Z,36.90
2018-07-13T14:22:20.168Z,36.80
2018-07-13T14:24:49.664Z,36.80
2018-07-13T14:27:18.377Z,36.60
2018-07-13T14:29:47.091Z,36.60
2018-07-13T14:32:17.073Z,36.60
2018-07-13T14:34:46.697Z,36.50
2018-07-13T14:39:54.187Z,36.50
2018-07-13T14:42:23.705Z,36.50
2018-07-13T14:44:55.076Z,36.50
2018-07-13T14:47:23.873Z,36.40
2018-07-13T14:49:52.647Z,36.30
2018-07-13T14:52:21.348Z,36.30
2018-07-13T14:54:50.024Z,36.30
2018-07-13T14:57:18.696Z,36.20
2018-07-13T14:59:48.147Z,36.10
2018-07-13T15:02:18.008Z,36.00
2018-07-13T15:04:46.626Z,35.90
2018-07-13T15:07:17.290Z,36.00
2018-07-13T15:09:46.025Z,35.90
2018-07-13T15:12:14.941Z,35.80
2018-07-13T15:14:51.404Z,35.70
2018-07-13T15:17:21.654Z,35.60
2018-07-13T15:19:50.540Z,35.50
2018-07-13T15:22:23.204Z,35.50
2018-07-13T15:24:51.935Z,35.40
2018-07-13T15:27:20.594Z,35.30
2018-07-13T15:32:17.913Z,35.30
2018-07-13T15:34:53.099Z,35.20
2018-07-13T15:39:59.469Z,35.10
2018-07-13T15:42:28.288Z,34.90
2018-07-13T15:44:56.983Z,34.90
2018-07-13T15:47:25.612Z,34.70
2018-07-13T15:49:54.300Z,34.70
2018-07-13T15:52:23.044Z,34.60
2018-07-13T15:54:54.968Z,34.60
2018-07-13T15:57:41.495Z,34.50
2018-07-13T16:00:10.320Z,34.60
2018-07-13T16:02:39.448Z,34.40
2018-07-13T16:05:08.182Z,34.40
2018-07-13T16:07:36.836Z,34.30
2018-07-13T16:10:05.520Z,34.30
2018-07-13T16:12:41.972Z,34.30
2018-07-13T16:15:15.443Z,34.20
2018-07-13T16:17:45.644Z,34.20
2018-07-13T16:20:25.298Z,34.20
2018-07-13T16:22:56.445Z,34.10
2018-07-13T16:25:25.151Z,34.10
2018-07-13T16:30:37.502Z,34.00
2018-07-13T16:33:06.989Z,34.00
2018-07-13T16:35:35.839Z,33.80
2018-07-13T16:38:09.888Z,33.70
2018-07-13T16:40:38.940Z,33.80
2018-07-13T16:43:07.670Z,33.70
2018-07-13T16:45:37.091Z,33.70
2018-07-13T16:50:35.346Z,33.60
2018-07-13T16:53:05.129Z,33.50
2018-07-13T16:55:34.060Z,33.50
2018-07-13T16:58:02.696Z,33.50
2018-07-13T17:00:31.500Z,33.50
2018-07-13T17:03:00.230Z,33.50
2018-07-13T17:05:31.953Z,33.50
2018-07-13T17:08:01.375Z,33.50
2018-07-13T17:10:30.090Z,33.40
2018-07-13T17:12:58.720Z,33.40
2018-07-13T17:15:28.168Z,33.30
2018-07-13T17:18:27.460Z,33.30
2018-07-13T17:20:56.187Z,33.20
2018-07-13T17:23:24.910Z,33.10
2018-07-13T17:25:53.680Z,33.10
2018-07-13T17:28:22.372Z,33.00
2018-07-13T17:30:51.181Z,33.00
2018-07-13T17:33:20.816Z,32.90
2018-07-13T17:35:52.873Z,32.90
2018-07-13T17:38:21.579Z,32.80
2018-07-13T17:40:50.355Z,32.70
2018-07-13T17:43:19.570Z,32.70
2018-07-13T17:45:50.222Z,32.70
2018-07-13T17:48:18.903Z,32.60
2018-07-13T17:50:47.585Z,32.50
2018-07-13T17:53:20.488Z,32.40
2018-07-13T17:55:49.195Z,32.40
2018-07-13T18:00:57.514Z,32.40
2018-07-13T18:03:26.876Z,32.30
2018-07-13T18:06:07.405Z,32.10
2018-07-13T18:12:04.778Z,32.00
2018-07-13T18:14:33.616Z,31.90
2018-07-13T18:17:02.533Z,31.80
2018-07-13T18:19:31.415Z,31.80
2018-07-13T18:22:00.009Z,31.70
2018-07-13T18:24:28.619Z,31.60
2018-07-13T18:26:57.280Z,31.50
2018-07-13T18:29:25.883Z,31.40
2018-07-13T18:31:54.505Z,31.30
2018-07-13T18:34:23.108Z,31.20
2018-07-13T18:36:51.716Z,31.10
2018-07-13T18:39:20.341Z,31.00
2018-07-13T18:41:48.937Z,30.90
2018-07-13T18:44:17.644Z,30.80
2018-07-13T18:46:46.289Z,30.70
2018-07-13T18:49:14.985Z,30.70
2018-07-13T18:51:43.608Z,30.50
2018-07-13T18:54:12.211Z,30.50
2018-07-13T18:56:40.844Z,30.30
2018-07-13T18:59:09.472Z,30.30
2018-07-13T19:01:38.084Z,30.10
2018-07-13T19:04:06.708Z,30.00
2018-07-13T19:06:35.340Z,29.90
2018-07-13T19:09:04.430Z,29.80
2018-07-13T19:11:33.070Z,29.70
2018-07-13T19:14:01.682Z,29.60
2018-07-13T19:16:30.284Z,29.60
2018-07-13T19:18:58.893Z,29.50
2018-07-13T19:21:27.491Z,29.40
2018-07-13T19:23:56.100Z,29.30
2018-07-13T19:26:24.771Z,29.20
2018-07-13T19:28:53.368Z,29.10
2018-07-13T19:31:21.968Z,29.00
2018-07-13T19:33:50.568Z,28.90
2018-07-13T19:36:19.249Z,28.80
2018-07-13T19:38:47.880Z,28.80
2018-07-13T19:41:16.543Z,28.70
2018-07-13T19:43:45.145Z,28.70
2018-07-13T19:46:13.758Z,28.60
2018-07-13T19:48:42.380Z,28.60
2018-07-13T19:51:11.036Z,28.50
2018-07-13T19:53:39.656Z,28.50
2018-07-13T19:56:08.268Z,28.40
2018-07-13T19:58:36.880Z,28.30
2018-07-13T20:01:05.882Z,28.20
2018-07-13T20:03:34.676Z,28.20
2018-07-13T20:06:03.320Z,28.10
2018-07-13T20:08:31.952Z,28.10
2018-07-13T20:11:00.568Z,28.10
2018-07-13T20:13:29.175Z,28.00
2018-07-13T20:15:57.776Z,27.90
2018-07-13T20:18:26.372Z,27.70
2018-07-13T20:21:09.759Z,27.60
2018-07-13T20:23:38.407Z,27.40
2018-07-13T20:26:07.110Z,27.30
2018-07-13T20:28:35.757Z,27.20
2018-07-13T20:31:04.557Z,27.10
2018-07-13T20:33:33.284Z,27.10
2018-07-13T20:36:01.932Z,26.90
2018-07-13T20:38:30.595Z,26.80
2018-07-13T20:40:59.253Z,26.80
2018-07-13T20:43:27.921Z,26.80
2018-07-13T20:45:56.610Z,26.80
2018-07-13T20:48:25.289Z,26.80
2018-07-13T20:50:53.927Z,26.80
2018-07-13T20:53:22.992Z,26.80
2018-07-13T20:55:51.662Z,26.80
2018-07-13T20:58:20.319Z,26.80
2018-07-13T21:00:48.984Z,26.80
2018-07-13T21:03:17.628Z,26.60
2018-07-13T21:05:46.289Z,26.50
2018-07-13T21:08:14.952Z,26.30
2018-07-13T21:10:43.623Z,26.10
2018-07-13T21:13:12.304Z,25.90
2018-07-13T21:15:44.822Z,25.80
2018-07-13T21:18:13.537Z,25.70
2018-07-13T21:20:44.222Z,25.60
2018-07-13T21:23:12.900Z,25.60
2018-07-13T21:25:41.585Z,25.50
2018-07-13T21:28:10.260Z,25.50
2018-07-13T21:30:39.016Z,25.60
2018-07-13T21:35:36.069Z,25.70
2018-07-13T21:38:04.836Z,25.80
2018-07-13T21:40:34.264Z,25.60
2018-07-13T21:43:03.712Z,25.50
2018-07-13T21:45:33.821Z,25.40
2018-07-13T21:48:02.497Z,25.30
2018-07-13T21:50:31.799Z,25.20
2018-07-13T21:53:02.753Z,25.10
2018-07-13T21:55:31.531Z,25.00
2018-07-13T21:58:00.311Z,25.00
2018-07-13T22:00:29.013Z,24.90
2018-07-13T22:02:57.929Z,25.00
2018-07-13T22:05:26.984Z,25.00
2018-07-13T22:07:56.409Z,24.90
2018-07-13T22:10:25.113Z,24.90
2018-07-13T22:12:53.756Z,24.80
2018-07-13T22:15:22.466Z,24.70
2018-07-13T22:17:51.132Z,24.50
2018-07-13T22:20:19.780Z,24.40
2018-07-13T22:22:48.466Z,24.40
2018-07-13T22:25:17.136Z,24.30
2018-07-13T22:27:45.827Z,24.40
2018-07-13T22:30:14.544Z,24.40
2018-07-13T22:35:11.488Z,24.50
2018-07-13T22:37:40.168Z,24.40
2018-07-13T22:40:08.872Z,24.20
2018-07-13T22:42:37.627Z,24.20
2018-07-13T22:45:06.915Z,24.10
2018-07-13T22:47:35.620Z,23.90
2018-07-13T22:50:04.329Z,23.80
2018-07-13T22:55:01.448Z,23.60
2018-07-13T22:57:30.122Z,23.50
2018-07-13T22:59:59.009Z,23.30
2018-07-13T23:02:27.644Z,23.30
2018-07-13T23:04:56.353Z,23.30
2018-07-13T23:07:25.017Z,23.30
2018-07-13T23:09:53.807Z,23.30
2018-07-13T23:12:22.455Z,23.40
2018-07-13T23:14:51.149Z,23.50
2018-07-13T23:17:19.823Z,23.50
2018-07-13T23:19:48.509Z,23.40
2018-07-13T23:22:17.229Z,23.30
2018-07-13T23:24:45.875Z,23.20
2018-07-13T23:27:14.577Z,23.10
2018-07-13T23:29:43.248Z,23.00
2018-07-13T23:32:11.928Z,23.00
2018-07-13T23:34:40.580Z,22.90
2018-07-13T23:37:09.276Z,22.90
2018-07-13T23:39:37.914Z,22.80
2018-07-13T23:42:06.555Z,22.70
2018-07-13T23:44:35.227Z,22.70
2018-07-13T23:47:03.916Z,22.70
2018-07-13T23:49:32.572Z,22.70
2018-07-13T23:52:01.268Z,22.70
2018-07-13T23:54:29.896Z,22.80
2018-07-13T23:56:58.656Z,22.80
2018-07-13T23:59:27.331Z,22.80
